DLH1KW EGPF-EDDF
Flight info
| Callsign | DLH1KW |
|---|---|
| Flight time | 1h 44m |
| Altitude | 37000 |
| Route | NORBO Y96 HAVEN DCT NATEB DCT GODOS DCT AMGOD DCT SOGPO DCT DIXAT DIXAT1D |
| Aircraft | A320/M-SDE2E3FGIJ1LORWXYZ/HB1 |
Departure
| Time | 2026-04-18 03:19 |
|---|---|
| Airport | Glasgow Airport (EGPF) |
Arrival
| Time | 2026-04-18 05:03 |
|---|---|
| Airport | Frankfurt Main Airport (EDDF) |
| Time | Latitude | Longitude | Altitude | Speed | Heading |
|---|---|---|---|---|---|
| 2026-04-18 02:44 | 55.86610 | -4.43424 | 33 ft | 0 kts | 73° |
| 2026-04-18 03:09 | 55.86605 | -4.43454 | 32 ft | 4 kts | 70° |
| 2026-04-18 03:09 | 55.86594 | -4.43498 | 32 ft | 4 kts | 57° |
| 2026-04-18 03:09 | 55.86577 | -4.43530 | 31 ft | 4 kts | 16° |
| 2026-04-18 03:10 | 55.86566 | -4.43533 | 32 ft | 0 kts | 343° |
| 2026-04-18 03:12 | 55.86596 | -4.43548 | 33 ft | 9 kts | 343° |
| 2026-04-18 03:13 | 55.86656 | -4.43580 | 33 ft | 9 kts | 343° |
| 2026-04-18 03:13 | 55.86715 | -4.43606 | 33 ft | 12 kts | 354° |
| 2026-04-18 03:13 | 55.86781 | -4.43425 | 33 ft | 24 kts | 78° |
| 2026-04-18 03:13 | 55.86821 | -4.43150 | 32 ft | 22 kts | 74° |
| 2026-04-18 03:14 | 55.86870 | -4.42953 | 33 ft | 15 kts | 41° |
| 2026-04-18 03:14 | 55.86960 | -4.42873 | 33 ft | 14 kts | 26° |
| 2026-04-18 03:14 | 55.87045 | -4.42810 | 33 ft | 13 kts | 20° |
| 2026-04-18 03:14 | 55.87124 | -4.42759 | 31 ft | 12 kts | 20° |
| 2026-04-18 03:15 | 55.87195 | -4.42712 | 34 ft | 10 kts | 21° |
| 2026-04-18 03:15 | 55.87250 | -4.42673 | 34 ft | 8 kts | 21° |
| 2026-04-18 03:15 | 55.87295 | -4.42642 | 34 ft | 7 kts | 21° |
| 2026-04-18 03:15 | 55.87384 | -4.42576 | 33 ft | 20 kts | 31° |
| 2026-04-18 03:16 | 55.87478 | -4.42410 | 35 ft | 18 kts | 46° |
| 2026-04-18 03:16 | 55.87565 | -4.42247 | 33 ft | 18 kts | 46° |
| 2026-04-18 03:16 | 55.87650 | -4.42095 | 31 ft | 18 kts | 45° |
| 2026-04-18 03:16 | 55.87732 | -4.41938 | 31 ft | 16 kts | 46° |
| 2026-04-18 03:17 | 55.87823 | -4.41842 | 30 ft | 15 kts | 8° |
| 2026-04-18 03:17 | 55.87847 | -4.41839 | 30 ft | 0 kts | 1° |
| 2026-04-18 03:17 | 55.87863 | -4.41839 | 30 ft | 7 kts | 358° |
| 2026-04-18 03:18 | 55.87926 | -4.41927 | 32 ft | 13 kts | 277° |
| 2026-04-18 03:18 | 55.87905 | -4.41992 | 31 ft | 0 kts | 226° |
| 2026-04-18 03:18 | 55.87841 | -4.42110 | 34 ft | 46 kts | 226° |
| 2026-04-18 03:18 | 55.87453 | -4.42832 | 37 ft | 112 kts | 227° |
| 2026-04-18 03:19 | 55.86829 | -4.44017 | 354 ft | 134 kts | 224° |
| 2026-04-18 03:19 | 55.86197 | -4.45201 | 1043 ft | 135 kts | 226° |
| 2026-04-18 03:19 | 55.85516 | -4.46410 | 1683 ft | 142 kts | 226° |
| 2026-04-18 03:19 | 55.84772 | -4.47735 | 2072 ft | 162 kts | 227° |
| 2026-04-18 03:20 | 55.83923 | -4.49251 | 2422 ft | 185 kts | 228° |
| 2026-04-18 03:20 | 55.82955 | -4.50980 | 2816 ft | 210 kts | 228° |
| 2026-04-18 03:20 | 55.81869 | -4.52917 | 3345 ft | 231 kts | 228° |
| 2026-04-18 03:20 | 55.80711 | -4.54973 | 4210 ft | 238 kts | 228° |
| 2026-04-18 03:21 | 55.79521 | -4.57075 | 5153 ft | 243 kts | 227° |
| 2026-04-18 03:21 | 55.78304 | -4.59223 | 5798 ft | 249 kts | 227° |
| 2026-04-18 03:21 | 55.77092 | -4.61358 | 5969 ft | 249 kts | 227° |
| 2026-04-18 03:21 | 55.75857 | -4.63526 | 6091 ft | 252 kts | 227° |
| 2026-04-18 03:22 | 55.74610 | -4.65713 | 7019 ft | 252 kts | 227° |
| 2026-04-18 03:22 | 55.73359 | -4.67909 | 7965 ft | 254 kts | 227° |
| 2026-04-18 03:22 | 55.72096 | -4.70123 | 8909 ft | 256 kts | 226° |
| 2026-04-18 03:22 | 55.70805 | -4.72334 | 9825 ft | 260 kts | 226° |
| 2026-04-18 03:23 | 55.69415 | -4.74416 | 10629 ft | 266 kts | 214° |
| 2026-04-18 03:23 | 55.67687 | -4.75606 | 11353 ft | 278 kts | 194° |
| 2026-04-18 03:23 | 55.65695 | -4.75879 | 11790 ft | 299 kts | 187° |
| 2026-04-18 03:23 | 55.63538 | -4.75606 | 12152 ft | 324 kts | 169° |
| 2026-04-18 03:24 | 55.61457 | -4.73848 | 12819 ft | 341 kts | 147° |
| 2026-04-18 03:24 | 55.59826 | -4.70729 | 13546 ft | 354 kts | 124° |
| 2026-04-18 03:24 | 55.58976 | -4.66599 | 14242 ft | 364 kts | 100° |
| 2026-04-18 03:24 | 55.58668 | -4.62138 | 14949 ft | 367 kts | 98° |
| 2026-04-18 03:25 | 55.58385 | -4.57631 | 15650 ft | 370 kts | 97° |
| 2026-04-18 03:25 | 55.58105 | -4.53095 | 16354 ft | 373 kts | 98° |
| 2026-04-18 03:25 | 55.57819 | -4.48520 | 17053 ft | 376 kts | 98° |
| 2026-04-18 03:25 | 55.57530 | -4.43980 | 17730 ft | 378 kts | 99° |
| 2026-04-18 03:26 | 55.57229 | -4.39346 | 18414 ft | 381 kts | 99° |
| 2026-04-18 03:26 | 55.56919 | -4.34689 | 19013 ft | 383 kts | 99° |
| 2026-04-18 03:26 | 55.56604 | -4.29997 | 19615 ft | 386 kts | 99° |
| 2026-04-18 03:26 | 55.56286 | -4.25270 | 20219 ft | 389 kts | 99° |
| 2026-04-18 03:27 | 55.55970 | -4.20508 | 20814 ft | 391 kts | 99° |
| 2026-04-18 03:27 | 55.55649 | -4.15718 | 21401 ft | 394 kts | 100° |
| 2026-04-18 03:27 | 55.55320 | -4.10894 | 21983 ft | 397 kts | 100° |
| 2026-04-18 03:27 | 55.54990 | -4.06099 | 22559 ft | 400 kts | 100° |
| 2026-04-18 03:28 | 55.54652 | -4.01201 | 23141 ft | 403 kts | 100° |
| 2026-04-18 03:28 | 55.54310 | -3.96275 | 23694 ft | 406 kts | 100° |
| 2026-04-18 03:28 | 55.53962 | -3.91305 | 24141 ft | 409 kts | 101° |
| 2026-04-18 03:28 | 55.53610 | -3.86304 | 24562 ft | 412 kts | 102° |
| 2026-04-18 03:29 | 55.53254 | -3.81268 | 24993 ft | 415 kts | 102° |
| 2026-04-18 03:29 | 55.52894 | -3.76194 | 25423 ft | 418 kts | 102° |
| 2026-04-18 03:29 | 55.52529 | -3.71091 | 25844 ft | 421 kts | 102° |
| 2026-04-18 03:29 | 55.52166 | -3.66017 | 26246 ft | 424 kts | 102° |
| 2026-04-18 03:30 | 55.51795 | -3.60843 | 26657 ft | 427 kts | 102° |
| 2026-04-18 03:30 | 55.51419 | -3.55631 | 27062 ft | 429 kts | 102° |
| 2026-04-18 03:30 | 55.51037 | -3.50388 | 27458 ft | 432 kts | 102° |
| 2026-04-18 03:30 | 55.50648 | -3.45119 | 27848 ft | 435 kts | 102° |
| 2026-04-18 03:31 | 55.50251 | -3.39820 | 28238 ft | 437 kts | 102° |
| 2026-04-18 03:31 | 55.49846 | -3.34486 | 28596 ft | 440 kts | 103° |
| 2026-04-18 03:31 | 55.49370 | -3.29150 | 28904 ft | 442 kts | 105° |
| 2026-04-18 03:31 | 55.48819 | -3.23807 | 29221 ft | 444 kts | 107° |
| 2026-04-18 03:32 | 55.48229 | -3.18522 | 29521 ft | 447 kts | 107° |
| 2026-04-18 03:32 | 55.47612 | -3.13140 | 29831 ft | 450 kts | 107° |
| 2026-04-18 03:32 | 55.46993 | -3.07721 | 30137 ft | 453 kts | 107° |
| 2026-04-18 03:32 | 55.46297 | -3.02310 | 30397 ft | 451 kts | 112° |
| 2026-04-18 03:33 | 55.45219 | -2.97159 | 30653 ft | 447 kts | 121° |
| 2026-04-18 03:33 | 55.43784 | -2.92337 | 30899 ft | 445 kts | 126° |
| 2026-04-18 03:33 | 55.42269 | -2.87571 | 31150 ft | 447 kts | 125° |
| 2026-04-18 03:33 | 55.40742 | -2.82773 | 31394 ft | 450 kts | 125° |
| 2026-04-18 03:34 | 55.39208 | -2.77966 | 31661 ft | 451 kts | 125° |
| 2026-04-18 03:34 | 55.37690 | -2.73223 | 31948 ft | 451 kts | 126° |
| 2026-04-18 03:34 | 55.36151 | -2.68412 | 32259 ft | 452 kts | 126° |
| 2026-04-18 03:34 | 55.34607 | -2.63596 | 32567 ft | 452 kts | 126° |
| 2026-04-18 03:35 | 55.33060 | -2.58785 | 32888 ft | 453 kts | 126° |
| 2026-04-18 03:35 | 55.31505 | -2.53965 | 33194 ft | 453 kts | 126° |
| 2026-04-18 03:35 | 55.29945 | -2.49148 | 33505 ft | 454 kts | 126° |
| 2026-04-18 03:35 | 55.28382 | -2.44333 | 33830 ft | 455 kts | 126° |
| 2026-04-18 03:36 | 55.26816 | -2.39518 | 34123 ft | 455 kts | 126° |
| 2026-04-18 03:36 | 55.25247 | -2.34698 | 34399 ft | 456 kts | 126° |
| 2026-04-18 03:36 | 55.23697 | -2.29935 | 34622 ft | 456 kts | 126° |
| 2026-04-18 03:36 | 55.22125 | -2.25112 | 34858 ft | 456 kts | 126° |
| 2026-04-18 03:37 | 55.20547 | -2.20284 | 35089 ft | 457 kts | 126° |
| 2026-04-18 03:37 | 55.18964 | -2.15465 | 35299 ft | 457 kts | 126° |
| 2026-04-18 03:37 | 55.17379 | -2.10645 | 35543 ft | 457 kts | 126° |
| 2026-04-18 03:37 | 55.15792 | -2.05827 | 35782 ft | 457 kts | 126° |
| 2026-04-18 03:38 | 55.14204 | -2.01009 | 35994 ft | 458 kts | 126° |
| 2026-04-18 03:38 | 55.12615 | -1.96194 | 36219 ft | 458 kts | 126° |
| 2026-04-18 03:38 | 55.11020 | -1.91374 | 36436 ft | 458 kts | 126° |
| 2026-04-18 03:38 | 55.09447 | -1.86631 | 36656 ft | 458 kts | 126° |
| 2026-04-18 03:39 | 55.07848 | -1.81823 | 36864 ft | 458 kts | 126° |
| 2026-04-18 03:39 | 55.06247 | -1.77019 | 37021 ft | 459 kts | 126° |
| 2026-04-18 03:39 | 55.03054 | -1.67441 | 37057 ft | 456 kts | 125° |
| 2026-04-18 03:40 | 54.99989 | -1.57785 | 37064 ft | 455 kts | 124° |
| 2026-04-18 03:40 | 54.97005 | -1.48165 | 37056 ft | 454 kts | 124° |
| 2026-04-18 03:41 | 54.93979 | -1.38524 | 37055 ft | 454 kts | 124° |
| 2026-04-18 03:41 | 54.90923 | -1.28930 | 37059 ft | 454 kts | 125° |
| 2026-04-18 03:42 | 54.87844 | -1.19348 | 37063 ft | 454 kts | 125° |
| 2026-04-18 03:42 | 54.84788 | -1.09842 | 37074 ft | 454 kts | 124° |
| 2026-04-18 03:43 | 54.81717 | -1.00265 | 37062 ft | 454 kts | 125° |
| 2026-04-18 03:43 | 54.78633 | -0.90723 | 37074 ft | 454 kts | 125° |
| 2026-04-18 03:44 | 54.75538 | -0.81205 | 37080 ft | 453 kts | 125° |
| 2026-04-18 03:44 | 54.72437 | -0.71704 | 37071 ft | 453 kts | 125° |
| 2026-04-18 03:45 | 54.69353 | -0.62272 | 37079 ft | 454 kts | 126° |
| 2026-04-18 03:45 | 54.66241 | -0.52792 | 37083 ft | 454 kts | 126° |
| 2026-04-18 03:46 | 54.63119 | -0.43318 | 37093 ft | 454 kts | 126° |
| 2026-04-18 03:46 | 54.59992 | -0.33865 | 37097 ft | 454 kts | 126° |
| 2026-04-18 03:47 | 54.56872 | -0.24491 | 37096 ft | 454 kts | 126° |
| 2026-04-18 03:47 | 54.53721 | -0.15073 | 37100 ft | 454 kts | 126° |
| 2026-04-18 03:48 | 54.50570 | -0.05659 | 37102 ft | 454 kts | 126° |
| 2026-04-18 03:48 | 54.47419 | 0.03742 | 37067 ft | 453 kts | 126° |
| 2026-04-18 03:49 | 54.44281 | 0.13041 | 37097 ft | 453 kts | 126° |
| 2026-04-18 03:49 | 54.41113 | 0.22376 | 37109 ft | 452 kts | 127° |
| 2026-04-18 03:50 | 54.37940 | 0.31695 | 37111 ft | 452 kts | 127° |
| 2026-04-18 03:50 | 54.34769 | 0.40990 | 37111 ft | 452 kts | 127° |
| 2026-04-18 03:51 | 54.31592 | 0.50274 | 37114 ft | 451 kts | 127° |
| 2026-04-18 03:51 | 54.28430 | 0.59468 | 37094 ft | 451 kts | 127° |
| 2026-04-18 03:52 | 54.25237 | 0.68709 | 37105 ft | 451 kts | 127° |
| 2026-04-18 03:52 | 54.22041 | 0.77926 | 37102 ft | 451 kts | 127° |
| 2026-04-18 03:53 | 54.18841 | 0.87136 | 37113 ft | 451 kts | 127° |
| 2026-04-18 03:53 | 54.15630 | 0.96318 | 37117 ft | 450 kts | 127° |
| 2026-04-18 03:54 | 54.12437 | 1.05419 | 37121 ft | 450 kts | 127° |
| 2026-04-18 03:54 | 54.09217 | 1.14571 | 37107 ft | 450 kts | 127° |
| 2026-04-18 03:55 | 54.05995 | 1.23695 | 37117 ft | 449 kts | 127° |
| 2026-04-18 03:55 | 54.02767 | 1.32803 | 37125 ft | 449 kts | 127° |
| 2026-04-18 03:56 | 53.99559 | 1.41819 | 37126 ft | 449 kts | 128° |
| 2026-04-18 03:56 | 53.96322 | 1.50890 | 37114 ft | 449 kts | 128° |
| 2026-04-18 03:57 | 53.91460 | 1.64463 | 37101 ft | 449 kts | 128° |
| 2026-04-18 03:58 | 53.88212 | 1.73495 | 37113 ft | 448 kts | 128° |
| 2026-04-18 03:58 | 53.84973 | 1.82444 | 37116 ft | 448 kts | 128° |
| 2026-04-18 03:59 | 53.81707 | 1.91438 | 37130 ft | 448 kts | 128° |
| 2026-04-18 03:59 | 53.78437 | 2.00416 | 37130 ft | 448 kts | 128° |
| 2026-04-18 04:00 | 53.75158 | 2.09383 | 37105 ft | 448 kts | 128° |
| 2026-04-18 04:00 | 53.71897 | 2.18264 | 37105 ft | 448 kts | 129° |
| 2026-04-18 04:01 | 53.68602 | 2.27205 | 37110 ft | 448 kts | 129° |
| 2026-04-18 04:01 | 53.65306 | 2.36128 | 37120 ft | 448 kts | 129° |
| 2026-04-18 04:02 | 53.61992 | 2.45031 | 37125 ft | 448 kts | 129° |
| 2026-04-18 04:02 | 53.58693 | 2.53945 | 37129 ft | 448 kts | 129° |
| 2026-04-18 04:03 | 53.55400 | 2.62776 | 37097 ft | 448 kts | 129° |
| 2026-04-18 04:03 | 53.52064 | 2.71632 | 37117 ft | 448 kts | 129° |
| 2026-04-18 04:04 | 53.48739 | 2.80495 | 37126 ft | 449 kts | 129° |
| 2026-04-18 04:04 | 53.45404 | 2.89350 | 37132 ft | 449 kts | 129° |
| 2026-04-18 04:05 | 53.42070 | 2.98116 | 37134 ft | 449 kts | 129° |
| 2026-04-18 04:05 | 53.38705 | 3.06927 | 37142 ft | 449 kts | 129° |
| 2026-04-18 04:06 | 53.35361 | 3.15740 | 37108 ft | 448 kts | 129° |
| 2026-04-18 04:06 | 53.31999 | 3.24531 | 37119 ft | 448 kts | 130° |
| 2026-04-18 04:07 | 53.28653 | 3.33235 | 37133 ft | 448 kts | 130° |
| 2026-04-18 04:07 | 53.24977 | 3.41485 | 37132 ft | 435 kts | 143° |
| 2026-04-18 04:08 | 53.20235 | 3.47367 | 37131 ft | 419 kts | 158° |
| 2026-04-18 04:08 | 53.15141 | 3.52100 | 37129 ft | 419 kts | 158° |
| 2026-04-18 04:09 | 53.10088 | 3.56843 | 37097 ft | 420 kts | 158° |
| 2026-04-18 04:09 | 53.05004 | 3.61587 | 37122 ft | 419 kts | 158° |
| 2026-04-18 04:10 | 52.99942 | 3.66425 | 37139 ft | 424 kts | 152° |
| 2026-04-18 04:10 | 52.95693 | 3.73450 | 37145 ft | 444 kts | 131° |
| 2026-04-18 04:11 | 52.92405 | 3.82171 | 37129 ft | 447 kts | 129° |
| 2026-04-18 04:11 | 52.89153 | 3.90857 | 37156 ft | 447 kts | 129° |
| 2026-04-18 04:12 | 52.85859 | 3.99581 | 37163 ft | 447 kts | 129° |
| 2026-04-18 04:12 | 52.82556 | 4.08276 | 37134 ft | 446 kts | 129° |
| 2026-04-18 04:13 | 52.79253 | 4.16960 | 37156 ft | 446 kts | 129° |
| 2026-04-18 04:13 | 52.75972 | 4.25566 | 37167 ft | 446 kts | 129° |
| 2026-04-18 04:14 | 52.72665 | 4.34221 | 37172 ft | 445 kts | 129° |
| 2026-04-18 04:14 | 52.69350 | 4.42849 | 37172 ft | 445 kts | 129° |
| 2026-04-18 04:15 | 52.66027 | 4.51453 | 37156 ft | 445 kts | 129° |
| 2026-04-18 04:15 | 52.62718 | 4.59996 | 37168 ft | 445 kts | 129° |
| 2026-04-18 04:16 | 52.59418 | 4.68512 | 37172 ft | 444 kts | 129° |
| 2026-04-18 04:16 | 52.56091 | 4.77076 | 37186 ft | 444 kts | 129° |
| 2026-04-18 04:17 | 52.52759 | 4.85613 | 37188 ft | 444 kts | 129° |
| 2026-04-18 04:17 | 52.49409 | 4.94114 | 37188 ft | 443 kts | 130° |
| 2026-04-18 04:18 | 52.46081 | 5.02550 | 37174 ft | 443 kts | 129° |
| 2026-04-18 04:18 | 52.42741 | 5.11030 | 37179 ft | 443 kts | 129° |
| 2026-04-18 04:19 | 52.39400 | 5.19497 | 37170 ft | 442 kts | 129° |
| 2026-04-18 04:19 | 52.36051 | 5.27940 | 37177 ft | 442 kts | 129° |
| 2026-04-18 04:20 | 52.32707 | 5.36315 | 37181 ft | 442 kts | 130° |
| 2026-04-18 04:20 | 52.29342 | 5.44728 | 37160 ft | 442 kts | 129° |
| 2026-04-18 04:21 | 52.25965 | 5.53134 | 37163 ft | 443 kts | 129° |
| 2026-04-18 04:21 | 52.22586 | 5.61534 | 37167 ft | 443 kts | 129° |
| 2026-04-18 04:22 | 52.19215 | 5.69879 | 37176 ft | 444 kts | 129° |
| 2026-04-18 04:22 | 52.15817 | 5.78266 | 37186 ft | 444 kts | 129° |
| 2026-04-18 04:23 | 52.12409 | 5.86653 | 37170 ft | 444 kts | 129° |
| 2026-04-18 04:23 | 52.08997 | 5.95026 | 37164 ft | 444 kts | 129° |
| 2026-04-18 04:24 | 52.05575 | 6.03398 | 37171 ft | 445 kts | 129° |
| 2026-04-18 04:24 | 52.02156 | 6.11709 | 37167 ft | 446 kts | 129° |
| 2026-04-18 04:25 | 51.98706 | 6.20071 | 37172 ft | 446 kts | 129° |
| 2026-04-18 04:25 | 51.94749 | 6.27623 | 37176 ft | 434 kts | 145° |
| 2026-04-18 04:26 | 51.90104 | 6.33711 | 37181 ft | 432 kts | 147° |
| 2026-04-18 04:26 | 51.85419 | 6.39832 | 37151 ft | 433 kts | 146° |
| 2026-04-18 04:27 | 51.80730 | 6.45961 | 37164 ft | 434 kts | 146° |
| 2026-04-18 04:27 | 51.76029 | 6.52076 | 37170 ft | 434 kts | 146° |
| 2026-04-18 04:28 | 51.71314 | 6.58171 | 37175 ft | 434 kts | 146° |
| 2026-04-18 04:28 | 51.66628 | 6.64230 | 37179 ft | 435 kts | 146° |
| 2026-04-18 04:29 | 51.61900 | 6.70314 | 36815 ft | 435 kts | 146° |
| 2026-04-18 04:29 | 51.59537 | 6.73351 | 36462 ft | 433 kts | 146° |
| 2026-04-18 04:29 | 51.57196 | 6.76361 | 35945 ft | 429 kts | 146° |
| 2026-04-18 04:29 | 51.54872 | 6.79345 | 35444 ft | 426 kts | 146° |
| 2026-04-18 04:30 | 51.52562 | 6.82306 | 34936 ft | 424 kts | 146° |
| 2026-04-18 04:30 | 51.50258 | 6.85254 | 34422 ft | 422 kts | 146° |
| 2026-04-18 04:30 | 51.47998 | 6.88145 | 33875 ft | 420 kts | 146° |
| 2026-04-18 04:30 | 51.45720 | 6.91054 | 33370 ft | 417 kts | 146° |
| 2026-04-18 04:31 | 51.43456 | 6.93935 | 32864 ft | 414 kts | 146° |
| 2026-04-18 04:31 | 51.41211 | 6.96789 | 32372 ft | 411 kts | 146° |
| 2026-04-18 04:31 | 51.38978 | 6.99624 | 31882 ft | 408 kts | 146° |
| 2026-04-18 04:31 | 51.36759 | 7.02437 | 31400 ft | 406 kts | 146° |
| 2026-04-18 04:32 | 51.34556 | 7.05230 | 30924 ft | 403 kts | 146° |
| 2026-04-18 04:32 | 51.32366 | 7.08001 | 30460 ft | 400 kts | 146° |
| 2026-04-18 04:32 | 51.30214 | 7.10716 | 29970 ft | 398 kts | 146° |
| 2026-04-18 04:32 | 51.28051 | 7.13438 | 29543 ft | 393 kts | 146° |
| 2026-04-18 04:33 | 51.25795 | 7.15820 | 29119 ft | 385 kts | 156° |
| 2026-04-18 04:33 | 51.23423 | 7.17721 | 28716 ft | 379 kts | 158° |
| 2026-04-18 04:33 | 51.21074 | 7.19582 | 28319 ft | 375 kts | 157° |
| 2026-04-18 04:33 | 51.18749 | 7.21425 | 27914 ft | 371 kts | 157° |
| 2026-04-18 04:34 | 51.16449 | 7.23247 | 27512 ft | 368 kts | 157° |
| 2026-04-18 04:34 | 51.14172 | 7.25050 | 27118 ft | 364 kts | 157° |
| 2026-04-18 04:34 | 51.11909 | 7.26842 | 26684 ft | 362 kts | 157° |
| 2026-04-18 04:34 | 51.09703 | 7.28614 | 26262 ft | 359 kts | 156° |
| 2026-04-18 04:35 | 51.07488 | 7.30432 | 25844 ft | 357 kts | 156° |
| 2026-04-18 04:35 | 51.05290 | 7.32255 | 25407 ft | 356 kts | 156° |
| 2026-04-18 04:35 | 51.03102 | 7.34078 | 24977 ft | 356 kts | 155° |
| 2026-04-18 04:35 | 51.00881 | 7.35932 | 24550 ft | 363 kts | 155° |
| 2026-04-18 04:36 | 50.98642 | 7.37794 | 24252 ft | 364 kts | 155° |
| 2026-04-18 04:36 | 50.96395 | 7.39658 | 24209 ft | 364 kts | 155° |
| 2026-04-18 04:36 | 50.94146 | 7.41520 | 24216 ft | 365 kts | 155° |
| 2026-04-18 04:36 | 50.91889 | 7.43388 | 24214 ft | 366 kts | 155° |
| 2026-04-18 04:37 | 50.89667 | 7.45226 | 24217 ft | 366 kts | 155° |
| 2026-04-18 04:37 | 50.87410 | 7.47089 | 24218 ft | 366 kts | 155° |
| 2026-04-18 04:37 | 50.85157 | 7.48948 | 24217 ft | 366 kts | 155° |
| 2026-04-18 04:37 | 50.82899 | 7.50804 | 24191 ft | 366 kts | 156° |
| 2026-04-18 04:38 | 50.80627 | 7.52649 | 23224 ft | 370 kts | 156° |
| 2026-04-18 04:38 | 50.78307 | 7.54515 | 22075 ft | 375 kts | 156° |
| 2026-04-18 04:38 | 50.75993 | 7.56372 | 21182 ft | 372 kts | 156° |
| 2026-04-18 04:38 | 50.73702 | 7.58210 | 20357 ft | 367 kts | 155° |
| 2026-04-18 04:39 | 50.71440 | 7.60022 | 19572 ft | 362 kts | 155° |
| 2026-04-18 04:39 | 50.69237 | 7.61784 | 18822 ft | 358 kts | 155° |
| 2026-04-18 04:39 | 50.67035 | 7.63555 | 18021 ft | 353 kts | 155° |
| 2026-04-18 04:39 | 50.64861 | 7.65314 | 17210 ft | 349 kts | 155° |
| 2026-04-18 04:40 | 50.62743 | 7.67035 | 16766 ft | 334 kts | 155° |
| 2026-04-18 04:40 | 50.60701 | 7.68695 | 16384 ft | 329 kts | 155° |
| 2026-04-18 04:40 | 50.58670 | 7.70340 | 15999 ft | 328 kts | 155° |
| 2026-04-18 04:40 | 50.56645 | 7.71974 | 15633 ft | 326 kts | 155° |
| 2026-04-18 04:41 | 50.54630 | 7.73596 | 15260 ft | 325 kts | 155° |
| 2026-04-18 04:41 | 50.52622 | 7.75210 | 14895 ft | 323 kts | 155° |
| 2026-04-18 04:41 | 50.50649 | 7.76794 | 14528 ft | 322 kts | 155° |
| 2026-04-18 04:41 | 50.48659 | 7.78392 | 14168 ft | 321 kts | 155° |
| 2026-04-18 04:42 | 50.46670 | 7.79984 | 13777 ft | 320 kts | 155° |
| 2026-04-18 04:42 | 50.44693 | 7.81565 | 13407 ft | 317 kts | 155° |
| 2026-04-18 04:42 | 50.42817 | 7.83363 | 13051 ft | 316 kts | 144° |
| 2026-04-18 04:42 | 50.41113 | 7.85496 | 12770 ft | 311 kts | 144° |
| 2026-04-18 04:43 | 50.39432 | 7.87594 | 12476 ft | 307 kts | 143° |
| 2026-04-18 04:43 | 50.37764 | 7.89663 | 12179 ft | 305 kts | 144° |
| 2026-04-18 04:43 | 50.36102 | 7.91719 | 11896 ft | 303 kts | 144° |
| 2026-04-18 04:43 | 50.34473 | 7.93733 | 11616 ft | 302 kts | 144° |
| 2026-04-18 04:44 | 50.32827 | 7.95765 | 11329 ft | 300 kts | 144° |
| 2026-04-18 04:44 | 50.31193 | 7.97780 | 11040 ft | 299 kts | 144° |
| 2026-04-18 04:44 | 50.29566 | 7.99787 | 10757 ft | 297 kts | 144° |
| 2026-04-18 04:44 | 50.27949 | 8.01785 | 10475 ft | 295 kts | 144° |
| 2026-04-18 04:45 | 50.26381 | 8.03850 | 10194 ft | 295 kts | 136° |
| 2026-04-18 04:45 | 50.25092 | 8.06337 | 10083 ft | 296 kts | 129° |
| 2026-04-18 04:45 | 50.23846 | 8.08893 | 10005 ft | 295 kts | 129° |
| 2026-04-18 04:45 | 50.22594 | 8.11436 | 9918 ft | 295 kts | 129° |
| 2026-04-18 04:46 | 50.21358 | 8.13934 | 9831 ft | 295 kts | 129° |
| 2026-04-18 04:46 | 50.20106 | 8.16461 | 9736 ft | 294 kts | 129° |
| 2026-04-18 04:46 | 50.18856 | 8.18985 | 9657 ft | 294 kts | 129° |
| 2026-04-18 04:46 | 50.17609 | 8.21503 | 9568 ft | 293 kts | 129° |
| 2026-04-18 04:47 | 50.16364 | 8.24016 | 9489 ft | 292 kts | 129° |
| 2026-04-18 04:47 | 50.15119 | 8.26523 | 9391 ft | 292 kts | 130° |
| 2026-04-18 04:47 | 50.13878 | 8.29021 | 9304 ft | 291 kts | 129° |
| 2026-04-18 04:47 | 50.12642 | 8.31513 | 9219 ft | 291 kts | 129° |
| 2026-04-18 04:48 | 50.11457 | 8.34062 | 9129 ft | 291 kts | 121° |
| 2026-04-18 04:48 | 50.10728 | 8.36946 | 9046 ft | 292 kts | 103° |
| 2026-04-18 04:48 | 50.10573 | 8.40089 | 8960 ft | 292 kts | 85° |
| 2026-04-18 04:48 | 50.11023 | 8.43164 | 8874 ft | 292 kts | 69° |
| 2026-04-18 04:49 | 50.11745 | 8.46134 | 8799 ft | 293 kts | 69° |
| 2026-04-18 04:49 | 50.12461 | 8.49101 | 8709 ft | 293 kts | 69° |
| 2026-04-18 04:49 | 50.13176 | 8.52079 | 8621 ft | 293 kts | 70° |
| 2026-04-18 04:49 | 50.13887 | 8.55054 | 8532 ft | 293 kts | 70° |
| 2026-04-18 04:50 | 50.14596 | 8.58024 | 8447 ft | 292 kts | 70° |
| 2026-04-18 04:50 | 50.15302 | 8.60992 | 8361 ft | 292 kts | 70° |
| 2026-04-18 04:50 | 50.15997 | 8.63920 | 8271 ft | 291 kts | 70° |
| 2026-04-18 04:50 | 50.16698 | 8.66879 | 8190 ft | 291 kts | 70° |
| 2026-04-18 04:51 | 50.17398 | 8.69838 | 8104 ft | 291 kts | 70° |
| 2026-04-18 04:51 | 50.18097 | 8.72796 | 8024 ft | 290 kts | 70° |
| 2026-04-18 04:51 | 50.18794 | 8.75745 | 7932 ft | 290 kts | 70° |
| 2026-04-18 04:51 | 50.19493 | 8.78693 | 7845 ft | 289 kts | 70° |
| 2026-04-18 04:52 | 50.20189 | 8.81638 | 7767 ft | 289 kts | 70° |
| 2026-04-18 04:52 | 50.20881 | 8.84575 | 7677 ft | 288 kts | 70° |
| 2026-04-18 04:52 | 50.21572 | 8.87514 | 7583 ft | 288 kts | 70° |
| 2026-04-18 04:52 | 50.22252 | 8.90410 | 7511 ft | 288 kts | 70° |
| 2026-04-18 04:53 | 50.22939 | 8.93346 | 7427 ft | 287 kts | 70° |
| 2026-04-18 04:53 | 50.23624 | 8.96275 | 7348 ft | 287 kts | 70° |
| 2026-04-18 04:53 | 50.24307 | 8.99200 | 7218 ft | 286 kts | 70° |
| 2026-04-18 04:53 | 50.24986 | 9.02098 | 6818 ft | 283 kts | 70° |
| 2026-04-18 04:54 | 50.25660 | 9.04983 | 6407 ft | 282 kts | 70° |
| 2026-04-18 04:54 | 50.26144 | 9.07920 | 5992 ft | 278 kts | 87° |
| 2026-04-18 04:54 | 50.25915 | 9.10877 | 5580 ft | 274 kts | 111° |
| 2026-04-18 04:54 | 50.24993 | 9.13385 | 5169 ft | 269 kts | 134° |
| 2026-04-18 04:55 | 50.23531 | 9.15140 | 4735 ft | 265 kts | 156° |
| 2026-04-18 04:55 | 50.21780 | 9.15883 | 4305 ft | 261 kts | 177° |
| 2026-04-18 04:55 | 50.20000 | 9.15539 | 4025 ft | 257 kts | 199° |
| 2026-04-18 04:56 | 50.17245 | 9.12076 | 4006 ft | 261 kts | 238° |
| 2026-04-18 04:56 | 50.16516 | 9.09485 | 4007 ft | 262 kts | 250° |
| 2026-04-18 04:56 | 50.15911 | 9.06879 | 4003 ft | 247 kts | 249° |
| 2026-04-18 04:56 | 50.15346 | 9.04459 | 4007 ft | 228 kts | 249° |
| 2026-04-18 04:57 | 50.14820 | 9.02212 | 4008 ft | 216 kts | 249° |
| 2026-04-18 04:57 | 50.14310 | 9.00054 | 4010 ft | 214 kts | 249° |
| 2026-04-18 04:57 | 50.13793 | 8.97878 | 4010 ft | 214 kts | 249° |
| 2026-04-18 04:57 | 50.13274 | 8.95702 | 4011 ft | 214 kts | 249° |
| 2026-04-18 04:58 | 50.12750 | 8.93526 | 4011 ft | 214 kts | 249° |
| 2026-04-18 04:58 | 50.12231 | 8.91351 | 4010 ft | 214 kts | 249° |
| 2026-04-18 04:58 | 50.11718 | 8.89174 | 4011 ft | 214 kts | 249° |
| 2026-04-18 04:58 | 50.11207 | 8.86999 | 4009 ft | 213 kts | 249° |
| 2026-04-18 04:59 | 50.10708 | 8.84877 | 3858 ft | 206 kts | 249° |
| 2026-04-18 04:59 | 50.10217 | 8.82793 | 3610 ft | 204 kts | 249° |
| 2026-04-18 04:59 | 50.09736 | 8.80752 | 3354 ft | 203 kts | 249° |
| 2026-04-18 04:59 | 50.09251 | 8.78693 | 3085 ft | 203 kts | 249° |
| 2026-04-18 05:00 | 50.08761 | 8.76618 | 2808 ft | 204 kts | 249° |
| 2026-04-18 05:00 | 50.08271 | 8.74546 | 2535 ft | 204 kts | 249° |
| 2026-04-18 05:00 | 50.07781 | 8.72473 | 2272 ft | 202 kts | 249° |
| 2026-04-18 05:00 | 50.07312 | 8.70494 | 2020 ft | 189 kts | 249° |
| 2026-04-18 05:01 | 50.06873 | 8.68642 | 1751 ft | 176 kts | 250° |
| 2026-04-18 05:01 | 50.06467 | 8.66928 | 1517 ft | 162 kts | 250° |
| 2026-04-18 05:01 | 50.06094 | 8.65358 | 1316 ft | 152 kts | 250° |
| 2026-04-18 05:01 | 50.05733 | 8.63839 | 1107 ft | 148 kts | 251° |
| 2026-04-18 05:02 | 50.05379 | 8.62356 | 856 ft | 145 kts | 251° |
| 2026-04-18 05:02 | 50.05027 | 8.60903 | 691 ft | 143 kts | 251° |
| 2026-04-18 05:02 | 50.04684 | 8.59457 | 512 ft | 142 kts | 253° |
| 2026-04-18 05:02 | 50.04350 | 8.58025 | 371 ft | 137 kts | 252° |
| 2026-04-18 05:03 | 50.04071 | 8.56836 | 360 ft | 93 kts | 250° |
| 2026-04-18 05:03 | 50.03909 | 8.56159 | 357 ft | 44 kts | 250° |
| 2026-04-18 05:03 | 50.03893 | 8.55789 | 352 ft | 23 kts | 278° |
| 2026-04-18 05:03 | 50.03933 | 8.55639 | 356 ft | 9 kts | 331° |
| 2026-04-18 05:04 | 50.03978 | 8.55663 | 351 ft | 6 kts | 55° |
| 2026-04-18 05:04 | 50.03993 | 8.55718 | 350 ft | 6 kts | 69° |
| 2026-04-18 05:04 | 50.04022 | 8.55836 | 351 ft | 17 kts | 69° |
| 2026-04-18 05:04 | 50.04064 | 8.56016 | 353 ft | 18 kts | 70° |
| 2026-04-18 05:05 | 50.04109 | 8.56208 | 357 ft | 20 kts | 70° |
| 2026-04-18 05:05 | 50.04156 | 8.56403 | 358 ft | 20 kts | 70° |
| 2026-04-18 05:05 | 50.04205 | 8.56606 | 358 ft | 20 kts | 69° |
| 2026-04-18 05:05 | 50.04250 | 8.56776 | 367 ft | 16 kts | 52° |
| 2026-04-18 05:06 | 50.04350 | 8.56830 | 360 ft | 16 kts | 11° |
| 2026-04-18 05:06 | 50.04469 | 8.56861 | 359 ft | 17 kts | 11° |
| 2026-04-18 05:06 | 50.04591 | 8.56905 | 360 ft | 19 kts | 13° |
| 2026-04-18 05:06 | 50.04692 | 8.56962 | 359 ft | 14 kts | 24° |
| 2026-04-18 05:07 | 50.04781 | 8.57025 | 359 ft | 12 kts | 24° |
| 2026-04-18 05:07 | 50.04814 | 8.57047 | 356 ft | 2 kts | 18° |
| 2026-04-18 05:07 | 50.04823 | 8.57038 | 356 ft | 2 kts | 321° |
| 2026-04-18 05:07 | 50.04838 | 8.56997 | 356 ft | 1 kts | 295° |
| 2026-04-18 05:08 | 50.04845 | 8.56970 | 361 ft | 2 kts | 294° |
| 2026-04-18 05:08 | 50.04851 | 8.56951 | 358 ft | 2 kts | 294° |
| 2026-04-18 05:08 | 50.04852 | 8.56946 | 359 ft | 0 kts | 294° |